sensor_id;sensor_type;location;lat;lon;timestamp;pressure;altitude;pressure_sealevel;temperature;humidity
5500;BME280;2772;42.700;23.304;2022-12-15T00:01:16;94263.75;;;5.69;100.00
5500;BME280;2772;42.700;23.304;2022-12-15T00:04:00;94245.97;;;5.61;100.00
5500;BME280;2772;42.700;23.304;2022-12-15T00:06:44;94253.44;;;5.46;100.00
5500;BME280;2772;42.700;23.304;2022-12-15T00:09:29;94250.41;;;5.52;100.00
5500;BME280;2772;42.700;23.304;2022-12-15T00:12:13;94257.63;;;5.60;100.00
5500;BME280;2772;42.700;23.304;2022-12-15T00:14:57;94286.50;;;5.43;100.00
5500;BME280;2772;42.700;23.304;2022-12-15T00:17:41;94285.00;;;5.64;100.00
5500;BME280;2772;42.700;23.304;2022-12-15T00:20:25;94295.47;;;5.56;100.00
5500;BME280;2772;42.700;23.304;2022-12-15T00:23:12;94303.97;;;5.53;100.00
5500;BME280;2772;42.700;23.304;2022-12-15T00:25:58;94310.75;;;5.59;100.00
5500;BME280;2772;42.700;23.304;2022-12-15T00:28:42;94315.50;;;5.70;100.00
5500;BME280;2772;42.700;23.304;2022-12-15T00:31:29;94330.38;;;5.66;100.00
5500;BME280;2772;42.700;23.304;2022-12-15T00:34:13;94308.16;;;5.67;100.00
5500;BME280;2772;42.700;23.304;2022-12-15T00:36:57;94299.66;;;5.70;100.00
5500;BME280;2772;42.700;23.304;2022-12-15T00:39:41;94299.06;;;5.73;100.00
5500;BME280;2772;42.700;23.304;2022-12-15T00:42:09;94294.47;;;5.92;100.00
5500;BME280;2772;42.700;23.304;2022-12-15T00:44:36;94279.13;;;5.94;100.00
5500;BME280;2772;42.700;23.304;2022-12-15T00:47:03;94262.97;;;5.96;100.00
5500;BME280;2772;42.700;23.304;2022-12-15T00:49:30;94255.38;;;6.03;100.00
5500;BME280;2772;42.700;23.304;2022-12-15T00:52:16;94248.25;;;6.03;100.00
5500;BME280;2772;42.700;23.304;2022-12-15T00:55:01;94236.19;;;6.11;100.00
5500;BME280;2772;42.700;23.304;2022-12-15T00:57:46;94225.31;;;6.12;100.00
5500;BME280;2772;42.700;23.304;2022-12-15T01:00:30;94230.53;;;6.04;100.00
5500;BME280;2772;42.700;23.304;2022-12-15T01:03:17;94230.09;;;5.88;100.00
5500;BME280;2772;42.700;23.304;2022-12-15T01:06:04;94226.25;;;5.81;100.00
5500;BME280;2772;42.700;23.304;2022-12-15T01:08:48;94231.88;;;5.66;100.00
5500;BME280;2772;42.700;23.304;2022-12-15T01:11:33;94219.16;;;5.54;100.00
5500;BME280;2772;42.700;23.304;2022-12-15T01:14:18;94241.19;;;5.50;100.00
5500;BME280;2772;42.700;23.304;2022-12-15T01:17:02;94225.25;;;5.55;100.00
5500;BME280;2772;42.700;23.304;2022-12-15T01:19:46;94221.00;;;5.67;100.00
5500;BME280;2772;42.700;23.304;2022-12-15T01:22:31;94226.19;;;5.72;100.00
5500;BME280;2772;42.700;23.304;2022-12-15T01:24:58;94218.44;;;5.89;100.00
5500;BME280;2772;42.700;23.304;2022-12-15T01:27:24;94216.47;;;5.81;100.00
5500;BME280;2772;42.700;23.304;2022-12-15T01:29:53;94216.13;;;5.74;100.00
5500;BME280;2772;42.700;23.304;2022-12-15T01:32:19;94228.38;;;5.57;100.00
5500;BME280;2772;42.700;23.304;2022-12-15T01:34:46;94243.63;;;5.60;100.00
5500;BME280;2772;42.700;23.304;2022-12-15T01:37:13;94229.31;;;5.88;100.00
5500;BME280;2772;42.700;23.304;2022-12-15T01:39:40;94231.34;;;5.91;100.00
5500;BME280;2772;42.700;23.304;2022-12-15T01:42:24;94224.03;;;5.88;100.00
5500;BME280;2772;42.700;23.304;2022-12-15T01:44:52;94197.84;;;6.00;100.00
5500;BME280;2772;42.700;23.304;2022-12-15T01:47:22;94194.84;;;5.93;100.00
5500;BME280;2772;42.700;23.304;2022-12-15T01:49:52;94216.47;;;5.95;100.00
5500;BME280;2772;42.700;23.304;2022-12-15T01:52:20;94215.22;;;6.14;100.00
5500;BME280;2772;42.700;23.304;2022-12-15T01:54:50;94193.09;;;6.10;100.00
5500;BME280;2772;42.700;23.304;2022-12-15T01:57:23;94174.06;;;6.00;100.00
5500;BME280;2772;42.700;23.304;2022-12-15T01:59:54;94162.97;;;5.89;100.00
5500;BME280;2772;42.700;23.304;2022-12-15T02:02:26;94159.75;;;5.79;100.00
5500;BME280;2772;42.700;23.304;2022-12-15T02:04:55;94159.78;;;5.65;100.00
5500;BME280;2772;42.700;23.304;2022-12-15T02:07:24;94167.53;;;5.62;100.00
5500;BME280;2772;42.700;23.304;2022-12-15T02:09:53;94180.59;;;5.80;100.00
5500;BME280;2772;42.700;23.304;2022-12-15T02:12:27;94189.88;;;5.78;100.00
5500;BME280;2772;42.700;23.304;2022-12-15T02:15:07;94175.22;;;5.85;100.00
5500;BME280;2772;42.700;23.304;2022-12-15T02:17:43;94166.81;;;5.83;100.00
5500;BME280;2772;42.700;23.304;2022-12-15T02:20:29;94155.34;;;5.88;100.00
5500;BME280;2772;42.700;23.304;2022-12-15T02:23:47;94143.16;;;6.00;100.00
5500;BME280;2772;42.700;23.304;2022-12-15T02:26:51;94130.47;;;5.89;100.00
5500;BME280;2772;42.700;23.304;2022-12-15T02:29:46;94145.97;;;5.82;100.00
5500;BME280;2772;42.700;23.304;2022-12-15T02:32:23;94149.47;;;5.91;100.00
5500;BME280;2772;42.700;23.304;2022-12-15T02:34:54;94170.13;;;5.75;100.00
5500;BME280;2772;42.700;23.304;2022-12-15T02:37:26;94161.56;;;5.92;100.00
5500;BME280;2772;42.700;23.304;2022-12-15T02:39:55;94153.13;;;6.03;100.00
5500;BME280;2772;42.700;23.304;2022-12-15T02:42:22;94149.25;;;6.09;100.00
5500;BME280;2772;42.700;23.304;2022-12-15T02:44:53;94148.84;;;5.94;100.00
5500;BME280;2772;42.700;23.304;2022-12-15T02:47:33;94176.81;;;5.95;100.00
5500;BME280;2772;42.700;23.304;2022-12-15T02:50:24;94185.84;;;5.94;100.00
5500;BME280;2772;42.700;23.304;2022-12-15T02:53:01;94196.53;;;5.89;100.00
5500;BME280;2772;42.700;23.304;2022-12-15T02:55:37;94205.41;;;5.79;100.00
5500;BME280;2772;42.700;23.304;2022-12-15T02:58:14;94205.13;;;5.94;100.00
5500;BME280;2772;42.700;23.304;2022-12-15T03:00:50;94194.66;;;5.89;100.00
5500;BME280;2772;42.700;23.304;2022-12-15T03:03:21;94190.91;;;6.04;100.00
5500;BME280;2772;42.700;23.304;2022-12-15T03:05:49;94185.53;;;5.95;100.00
5500;BME280;2772;42.700;23.304;2022-12-15T03:08:19;94192.16;;;6.06;100.00
5500;BME280;2772;42.700;23.304;2022-12-15T03:10:47;94184.31;;;6.15;100.00
5500;BME280;2772;42.700;23.304;2022-12-15T03:13:15;94186.56;;;6.08;100.00
5500;BME280;2772;42.700;23.304;2022-12-15T03:15:41;94178.00;;;6.02;100.00
5500;BME280;2772;42.700;23.304;2022-12-15T03:18:08;94189.81;;;6.05;100.00
5500;BME280;2772;42.700;23.304;2022-12-15T03:20:36;94177.25;;;6.10;100.00
5500;BME280;2772;42.700;23.304;2022-12-15T03:23:03;94184.44;;;5.96;100.00
5500;BME280;2772;42.700;23.304;2022-12-15T03:25:30;94189.69;;;5.88;100.00
5500;BME280;2772;42.700;23.304;2022-12-15T03:27:57;94195.34;;;5.81;100.00
5500;BME280;2772;42.700;23.304;2022-12-15T03:30:24;94196.84;;;5.74;100.00
5500;BME280;2772;42.700;23.304;2022-12-15T03:32:50;94202.03;;;5.65;100.00
5500;BME280;2772;42.700;23.304;2022-12-15T03:35:17;94186.72;;;5.54;100.00
5500;BME280;2772;42.700;23.304;2022-12-15T03:37:45;94199.59;;;5.69;100.00
5500;BME280;2772;42.700;23.304;2022-12-15T03:40:12;94194.56;;;5.81;100.00
5500;BME280;2772;42.700;23.304;2022-12-15T03:42:39;94181.94;;;5.91;100.00
5500;BME280;2772;42.700;23.304;2022-12-15T03:45:15;94187.41;;;5.95;100.00
5500;BME280;2772;42.700;23.304;2022-12-15T03:47:43;94196.06;;;5.87;100.00
5500;BME280;2772;42.700;23.304;2022-12-15T03:50:11;94213.47;;;5.88;100.00
5500;BME280;2772;42.700;23.304;2022-12-15T03:52:38;94206.63;;;5.87;100.00
5500;BME280;2772;42.700;23.304;2022-12-15T03:55:08;94225.59;;;5.89;100.00
5500;BME280;2772;42.700;23.304;2022-12-15T03:57:34;94213.84;;;5.81;100.00
5500;BME280;2772;42.700;23.304;2022-12-15T04:00:03;94222.06;;;5.80;100.00
5500;BME280;2772;42.700;23.304;2022-12-15T04:02:29;94238.63;;;5.85;100.00
5500;BME280;2772;42.700;23.304;2022-12-15T04:04:56;94229.41;;;5.83;100.00
5500;BME280;2772;42.700;23.304;2022-12-15T04:07:23;94238.03;;;5.88;100.00
5500;BME280;2772;42.700;23.304;2022-12-15T04:09:50;94216.75;;;5.93;100.00
5500;BME280;2772;42.700;23.304;2022-12-15T04:12:18;94222.91;;;6.02;100.00
5500;BME280;2772;42.700;23.304;2022-12-15T04:14:45;94228.34;;;6.06;100.00
5500;BME280;2772;42.700;23.304;2022-12-15T04:17:12;94239.06;;;6.01;100.00
5500;BME280;2772;42.700;23.304;2022-12-15T04:19:38;94226.28;;;6.16;100.00
5500;BME280;2772;42.700;23.304;2022-12-15T04:22:23;94225.13;;;6.31;100.00
5500;BME280;2772;42.700;23.304;2022-12-15T04:24:49;94230.41;;;6.31;100.00
5500;BME280;2772;42.700;23.304;2022-12-15T04:27:35;94234.38;;;6.20;100.00
5500;BME280;2772;42.700;23.304;2022-12-15T04:30:19;94235.56;;;5.92;100.00
5500;BME280;2772;42.700;23.304;2022-12-15T04:33:04;94229.75;;;6.03;100.00
5500;BME280;2772;42.700;23.304;2022-12-15T04:35:48;94222.47;;;5.87;100.00
5500;BME280;2772;42.700;23.304;2022-12-15T04:38:33;94209.75;;;5.75;100.00
5500;BME280;2772;42.700;23.304;2022-12-15T04:41:19;94231.09;;;5.65;100.00
5500;BME280;2772;42.700;23.304;2022-12-15T04:44:08;94241.31;;;5.45;100.00
5500;BME280;2772;42.700;23.304;2022-12-15T04:46:53;94237.38;;;5.42;100.00
5500;BME280;2772;42.700;23.304;2022-12-15T04:49:38;94231.31;;;5.55;100.00
5500;BME280;2772;42.700;23.304;2022-12-15T04:52:22;94236.50;;;5.47;100.00
5500;BME280;2772;42.700;23.304;2022-12-15T04:55:07;94242.56;;;5.47;100.00
5500;BME280;2772;42.700;23.304;2022-12-15T04:57:51;94258.50;;;5.56;100.00
5500;BME280;2772;42.700;23.304;2022-12-15T05:00:37;94270.63;;;5.57;100.00
5500;BME280;2772;42.700;23.304;2022-12-15T05:03:21;94282.53;;;5.54;100.00
5500;BME280;2772;42.700;23.304;2022-12-15T05:06:05;94284.16;;;5.42;100.00
5500;BME280;2772;42.700;23.304;2022-12-15T05:08:49;94292.81;;;5.42;100.00
5500;BME280;2772;42.700;23.304;2022-12-15T05:11:33;94299.97;;;5.42;100.00
5500;BME280;2772;42.700;23.304;2022-12-15T05:14:17;94290.28;;;5.51;100.00
5500;BME280;2772;42.700;23.304;2022-12-15T05:17:03;94301.91;;;5.50;100.00
5500;BME280;2772;42.700;23.304;2022-12-15T05:19:47;94318.94;;;5.57;100.00
5500;BME280;2772;42.700;23.304;2022-12-15T05:22:31;94334.09;;;5.65;100.00
5500;BME280;2772;42.700;23.304;2022-12-15T05:25:15;94348.09;;;5.66;100.00
5500;BME280;2772;42.700;23.304;2022-12-15T05:27:59;94341.63;;;5.72;100.00
5500;BME280;2772;42.700;23.304;2022-12-15T05:30:43;94344.84;;;5.69;100.00
5500;BME280;2772;42.700;23.304;2022-12-15T05:33:29;94350.03;;;5.74;100.00
5500;BME280;2772;42.700;23.304;2022-12-15T05:35:56;94364.22;;;5.78;100.00
5500;BME280;2772;42.700;23.304;2022-12-15T05:38:23;94379.09;;;5.74;100.00
5500;BME280;2772;42.700;23.304;2022-12-15T05:40:50;94370.66;;;5.72;100.00
5500;BME280;2772;42.700;23.304;2022-12-15T05:43:16;94376.44;;;5.74;100.00
5500;BME280;2772;42.700;23.304;2022-12-15T05:45:43;94405.72;;;5.77;100.00
5500;BME280;2772;42.700;23.304;2022-12-15T05:48:10;94395.25;;;5.59;100.00
5500;BME280;2772;42.700;23.304;2022-12-15T05:50:38;94386.72;;;5.75;100.00
5500;BME280;2772;42.700;23.304;2022-12-15T05:53:05;94415.44;;;5.82;100.00
5500;BME280;2772;42.700;23.304;2022-12-15T05:55:32;94428.47;;;5.60;100.00
5500;BME280;2772;42.700;23.304;2022-12-15T05:57:58;94422.13;;;5.61;100.00
5500;BME280;2772;42.700;23.304;2022-12-15T06:00:25;94429.06;;;5.57;100.00
5500;BME280;2772;42.700;23.304;2022-12-15T06:02:52;94440.59;;;5.47;100.00
5500;BME280;2772;42.700;23.304;2022-12-15T06:05:19;94437.09;;;5.20;100.00
5500;BME280;2772;42.700;23.304;2022-12-15T06:07:47;94450.47;;;5.42;100.00
5500;BME280;2772;42.700;23.304;2022-12-15T06:10:15;94444.03;;;5.48;100.00
5500;BME280;2772;42.700;23.304;2022-12-15T06:12:42;94442.34;;;5.52;100.00
5500;BME280;2772;42.700;23.304;2022-12-15T06:15:11;94454.88;;;5.60;100.00
5500;BME280;2772;42.700;23.304;2022-12-15T06:17:38;94461.72;;;5.61;100.00
5500;BME280;2772;42.700;23.304;2022-12-15T06:20:06;94455.81;;;5.37;100.00
5500;BME280;2772;42.700;23.304;2022-12-15T06:22:33;94451.94;;;5.48;100.00
5500;BME280;2772;42.700;23.304;2022-12-15T06:25:01;94469.03;;;5.37;100.00
5500;BME280;2772;42.700;23.304;2022-12-15T06:27:27;94470.31;;;5.53;100.00
5500;BME280;2772;42.700;23.304;2022-12-15T06:29:55;94461.53;;;5.57;100.00
5500;BME280;2772;42.700;23.304;2022-12-15T06:32:21;94459.59;;;5.63;100.00
5500;BME280;2772;42.700;23.304;2022-12-15T06:34:48;94467.59;;;5.58;100.00
5500;BME280;2772;42.700;23.304;2022-12-15T06:37:15;94475.44;;;5.63;100.00
5500;BME280;2772;42.700;23.304;2022-12-15T06:39:42;94485.09;;;5.22;100.00
5500;BME280;2772;42.700;23.304;2022-12-15T06:42:10;94477.13;;;5.40;100.00
5500;BME280;2772;42.700;23.304;2022-12-15T06:44:39;94479.31;;;5.52;100.00
5500;BME280;2772;42.700;23.304;2022-12-15T06:47:05;94484.91;;;5.64;100.00
5500;BME280;2772;42.700;23.304;2022-12-15T06:49:32;94484.72;;;5.60;100.00
5500;BME280;2772;42.700;23.304;2022-12-15T06:51:59;94475.66;;;5.66;100.00
5500;BME280;2772;42.700;23.304;2022-12-15T06:54:26;94479.44;;;5.60;100.00
5500;BME280;2772;42.700;23.304;2022-12-15T06:56:53;94495.09;;;5.57;100.00
5500;BME280;2772;42.700;23.304;2022-12-15T06:59:21;94490.75;;;5.47;100.00
5500;BME280;2772;42.700;23.304;2022-12-15T07:01:48;94499.28;;;5.26;100.00
5500;BME280;2772;42.700;23.304;2022-12-15T07:04:15;94498.72;;;5.29;100.00
5500;BME280;2772;42.700;23.304;2022-12-15T07:06:42;94503.91;;;5.34;100.00
5500;BME280;2772;42.700;23.304;2022-12-15T07:09:12;94521.16;;;5.26;100.00
5500;BME280;2772;42.700;23.304;2022-12-15T07:11:41;94504.97;;;5.33;100.00
5500;BME280;2772;42.700;23.304;2022-12-15T07:14:08;94515.97;;;5.40;100.00
5500;BME280;2772;42.700;23.304;2022-12-15T07:16:37;94519.00;;;5.47;100.00
5500;BME280;2772;42.700;23.304;2022-12-15T07:19:05;94520.69;;;5.56;100.00
5500;BME280;2772;42.700;23.304;2022-12-15T07:21:32;94520.41;;;5.58;100.00
5500;BME280;2772;42.700;23.304;2022-12-15T07:23:58;94530.44;;;5.74;100.00
5500;BME280;2772;42.700;23.304;2022-12-15T07:26:25;94531.50;;;5.73;100.00
5500;BME280;2772;42.700;23.304;2022-12-15T07:28:52;94534.56;;;5.80;100.00
5500;BME280;2772;42.700;23.304;2022-12-15T07:31:19;94539.78;;;5.67;100.00
5500;BME280;2772;42.700;23.304;2022-12-15T07:33:47;94552.31;;;5.61;100.00
5500;BME280;2772;42.700;23.304;2022-12-15T07:36:16;94530.75;;;6.59;100.00
5500;BME280;2772;42.700;23.304;2022-12-15T07:38:43;94549.53;;;6.17;100.00
5500;BME280;2772;42.700;23.304;2022-12-15T07:41:10;94543.84;;;5.78;100.00
5500;BME280;2772;42.700;23.304;2022-12-15T07:43:37;94543.47;;;6.16;100.00
5500;BME280;2772;42.700;23.304;2022-12-15T07:46:04;94533.50;;;6.54;100.00
5500;BME280;2772;42.700;23.304;2022-12-15T07:48:33;94531.63;;;6.68;100.00
5500;BME280;2772;42.700;23.304;2022-12-15T07:51:05;94529.22;;;6.94;100.00
5500;BME280;2772;42.700;23.304;2022-12-15T07:53:32;94532.94;;;7.06;100.00
5500;BME280;2772;42.700;23.304;2022-12-15T07:55:59;94540.97;;;7.01;100.00
5500;BME280;2772;42.700;23.304;2022-12-15T07:58:27;94560.94;;;7.07;100.00
5500;BME280;2772;42.700;23.304;2022-12-15T08:00:58;94560.91;;;7.34;100.00
5500;BME280;2772;42.700;23.304;2022-12-15T08:03:25;94567.31;;;7.20;100.00
5500;BME280;2772;42.700;23.304;2022-12-15T08:05:52;94581.84;;;7.22;100.00
5500;BME280;2772;42.700;23.304;2022-12-15T08:08:20;94591.97;;;7.07;100.00
5500;BME280;2772;42.700;23.304;2022-12-15T08:22:43;94609.38;;;7.35;100.00
5500;BME280;2772;42.700;23.304;2022-12-15T08:25:09;94614.38;;;7.36;100.00
5500;BME280;2772;42.700;23.304;2022-12-15T08:27:36;94609.97;;;7.18;100.00
5500;BME280;2772;42.700;23.304;2022-12-15T08:30:04;94614.28;;;8.07;100.00
5500;BME280;2772;42.700;23.304;2022-12-15T08:32:32;94582.75;;;8.98;100.00
5500;BME280;2772;42.700;23.304;2022-12-15T08:34:59;94581.72;;;9.41;100.00
5500;BME280;2772;42.700;23.304;2022-12-15T08:37:26;94584.53;;;9.28;100.00
5500;BME280;2772;42.700;23.304;2022-12-15T08:39:54;94595.19;;;8.80;100.00
5500;BME280;2772;42.700;23.304;2022-12-15T08:42:21;94613.78;;;8.50;100.00
5500;BME280;2772;42.700;23.304;2022-12-15T08:44:50;94622.34;;;8.38;100.00
5500;BME280;2772;42.700;23.304;2022-12-15T08:47:16;94633.97;;;8.29;100.00
5500;BME280;2772;42.700;23.304;2022-12-15T08:49:43;94636.38;;;7.94;100.00
5500;BME280;2772;42.700;23.304;2022-12-15T08:52:12;94638.28;;;8.02;100.00
5500;BME280;2772;42.700;23.304;2022-12-15T08:54:41;94655.03;;;7.89;100.00
5500;BME280;2772;42.700;23.304;2022-12-15T08:57:09;94642.38;;;7.86;100.00
5500;BME280;2772;42.700;23.304;2022-12-15T08:59:35;94644.44;;;7.89;100.00
5500;BME280;2772;42.700;23.304;2022-12-15T09:02:03;94647.69;;;7.86;100.00
5500;BME280;2772;42.700;23.304;2022-12-15T09:04:29;94642.09;;;7.88;100.00
5500;BME280;2772;42.700;23.304;2022-12-15T09:06:58;94638.59;;;7.79;100.00
5500;BME280;2772;42.700;23.304;2022-12-15T09:09:24;94635.19;;;7.87;100.00
5500;BME280;2772;42.700;23.304;2022-12-15T09:11:51;94645.78;;;8.00;100.00
5500;BME280;2772;42.700;23.304;2022-12-15T09:14:19;94644.91;;;8.13;100.00
5500;BME280;2772;42.700;23.304;2022-12-15T09:16:49;94641.84;;;8.20;100.00
5500;BME280;2772;42.700;23.304;2022-12-15T09:19:18;94639.97;;;8.21;100.00
5500;BME280;2772;42.700;23.304;2022-12-15T09:21:44;94644.16;;;8.13;100.00
5500;BME280;2772;42.700;23.304;2022-12-15T09:24:13;94635.03;;;8.28;100.00
5500;BME280;2772;42.700;23.304;2022-12-15T09:26:39;94639.88;;;8.48;100.00
5500;BME280;2772;42.700;23.304;2022-12-15T09:29:09;94641.66;;;8.39;100.00
5500;BME280;2772;42.700;23.304;2022-12-15T09:31:39;94644.19;;;8.44;100.00
5500;BME280;2772;42.700;23.304;2022-12-15T09:34:12;94652.78;;;8.41;100.00
5500;BME280;2772;42.700;23.304;2022-12-15T09:36:40;94643.09;;;8.45;100.00
5500;BME280;2772;42.700;23.304;2022-12-15T09:39:07;94657.34;;;8.49;100.00
5500;BME280;2772;42.700;23.304;2022-12-15T09:41:37;94657.34;;;8.49;100.00
5500;BME280;2772;42.700;23.304;2022-12-15T09:44:10;94651.63;;;8.55;100.00
5500;BME280;2772;42.700;23.304;2022-12-15T09:46:49;94645.25;;;8.65;100.00
5500;BME280;2772;42.700;23.304;2022-12-15T09:49:29;94653.97;;;8.57;100.00
5500;BME280;2772;42.700;23.304;2022-12-15T09:52:03;94648.22;;;8.63;100.00
5500;BME280;2772;42.700;23.304;2022-12-15T09:54:35;94664.56;;;8.57;100.00
5500;BME280;2772;42.700;23.304;2022-12-15T09:57:13;94663.59;;;8.53;100.00
5500;BME280;2772;42.700;23.304;2022-12-15T10:02:51;94654.69;;;8.49;100.00
5500;BME280;2772;42.700;23.304;2022-12-15T10:05:31;94647.81;;;8.48;100.00
5500;BME280;2772;42.700;23.304;2022-12-15T10:08:00;94644.91;;;8.58;100.00
5500;BME280;2772;42.700;23.304;2022-12-15T10:10:32;94641.03;;;8.64;100.00
5500;BME280;2772;42.700;23.304;2022-12-15T10:13:07;94641.31;;;8.54;100.00
5500;BME280;2772;42.700;23.304;2022-12-15T10:15:40;94647.75;;;8.70;100.00
5500;BME280;2772;42.700;23.304;2022-12-15T10:18:17;94635.78;;;8.81;100.00
5500;BME280;2772;42.700;23.304;2022-12-15T10:20:46;94650.47;;;8.78;100.00
5500;BME280;2772;42.700;23.304;2022-12-15T10:23:15;94653.00;;;8.83;100.00
5500;BME280;2772;42.700;23.304;2022-12-15T10:25:46;94660.53;;;8.90;100.00
5500;BME280;2772;42.700;23.304;2022-12-15T10:28:43;94664.44;;;9.01;100.00
5500;BME280;2772;42.700;23.304;2022-12-15T10:31:17;94663.69;;;9.00;100.00
5500;BME280;2772;42.700;23.304;2022-12-15T10:33:55;94663.25;;;9.07;100.00
5500;BME280;2772;42.700;23.304;2022-12-15T10:36:23;94665.91;;;9.07;100.00
5500;BME280;2772;42.700;23.304;2022-12-15T10:38:51;94665.72;;;9.03;100.00
5500;BME280;2772;42.700;23.304;2022-12-15T10:41:19;94675.69;;;8.98;100.00
5500;BME280;2772;42.700;23.304;2022-12-15T10:43:48;94665.34;;;8.88;100.00
5500;BME280;2772;42.700;23.304;2022-12-15T10:46:17;94661.09;;;8.78;100.00
5500;BME280;2772;42.700;23.304;2022-12-15T10:48:46;94657.38;;;8.88;100.00
5500;BME280;2772;42.700;23.304;2022-12-15T10:51:20;94659.59;;;8.94;100.00
5500;BME280;2772;42.700;23.304;2022-12-15T10:53:49;94655.28;;;9.07;100.00
5500;BME280;2772;42.700;23.304;2022-12-15T10:56:20;94658.41;;;9.09;100.00
5500;BME280;2772;42.700;23.304;2022-12-15T10:58:50;94658.56;;;9.04;100.00
5500;BME280;2772;42.700;23.304;2022-12-15T11:01:21;94667.91;;;9.01;100.00
5500;BME280;2772;42.700;23.304;2022-12-15T11:03:52;94663.88;;;9.12;100.00
5500;BME280;2772;42.700;23.304;2022-12-15T11:06:23;94671.22;;;9.15;100.00
5500;BME280;2772;42.700;23.304;2022-12-15T11:08:52;94673.31;;;9.27;100.00
5500;BME280;2772;42.700;23.304;2022-12-15T11:11:31;94664.09;;;9.41;100.00
5500;BME280;2772;42.700;23.304;2022-12-15T11:14:17;94670.38;;;9.45;100.00
5500;BME280;2772;42.700;23.304;2022-12-15T11:16:51;94648.81;;;9.55;100.00
5500;BME280;2772;42.700;23.304;2022-12-15T11:19:32;94664.94;;;9.59;100.00
5500;BME280;2772;42.700;23.304;2022-12-15T11:22:06;94672.47;;;9.65;100.00
5500;BME280;2772;42.700;23.304;2022-12-15T11:24:38;94667.63;;;9.68;100.00
5500;BME280;2772;42.700;23.304;2022-12-15T11:27:20;94671.22;;;9.63;100.00
5500;BME280;2772;42.700;23.304;2022-12-15T11:29:56;94655.84;;;9.51;100.00
5500;BME280;2772;42.700;23.304;2022-12-15T11:32:32;94667.44;;;9.55;100.00
5500;BME280;2772;42.700;23.304;2022-12-15T11:35:01;94670.25;;;9.50;100.00
5500;BME280;2772;42.700;23.304;2022-12-15T11:37:41;94671.81;;;9.51;100.00
5500;BME280;2772;42.700;23.304;2022-12-15T11:40:18;94675.09;;;9.48;100.00
5500;BME280;2772;42.700;23.304;2022-12-15T11:42:56;94676.19;;;9.56;100.00
5500;BME280;2772;42.700;23.304;2022-12-15T11:45:33;94680.72;;;9.47;100.00
5500;BME280;2772;42.700;23.304;2022-12-15T11:48:08;94685.56;;;9.62;100.00
5500;BME280;2772;42.700;23.304;2022-12-15T11:50:43;94675.41;;;9.55;100.00
5500;BME280;2772;42.700;23.304;2022-12-15T11:53:25;94683.56;;;9.68;100.00
5500;BME280;2772;42.700;23.304;2022-12-15T11:56:04;94673.38;;;9.69;100.00
5500;BME280;2772;42.700;23.304;2022-12-15T11:59:08;94679.03;;;9.68;100.00
5500;BME280;2772;42.700;23.304;2022-12-15T12:01:50;94685.75;;;9.65;100.00
5500;BME280;2772;42.700;23.304;2022-12-15T12:04:23;94682.94;;;9.71;100.00
5500;BME280;2772;42.700;23.304;2022-12-15T12:06:59;94678.09;;;9.81;100.00
5500;BME280;2772;42.700;23.304;2022-12-15T12:09:32;94683.75;;;9.97;100.00
5500;BME280;2772;42.700;23.304;2022-12-15T12:12:11;94702.50;;;9.92;100.00
5500;BME280;2772;42.700;23.304;2022-12-15T12:14:50;94692.53;;;9.97;100.00
5500;BME280;2772;42.700;23.304;2022-12-15T12:17:30;94695.69;;;10.16;100.00
5500;BME280;2772;42.700;23.304;2022-12-15T12:20:02;94694.88;;;10.24;100.00
5500;BME280;2772;42.700;23.304;2022-12-15T12:22:40;94699.28;;;10.37;100.00
5500;BME280;2772;42.700;23.304;2022-12-15T12:25:13;94699.59;;;10.36;100.00
5500;BME280;2772;42.700;23.304;2022-12-15T12:27:44;94710.09;;;10.41;100.00
5500;BME280;2772;42.700;23.304;2022-12-15T12:30:15;94710.09;;;10.41;100.00
5500;BME280;2772;42.700;23.304;2022-12-15T12:32:50;94711.97;;;10.40;100.00
5500;BME280;2772;42.700;23.304;2022-12-15T12:35:23;94712.59;;;10.46;100.00
5500;BME280;2772;42.700;23.304;2022-12-15T12:37:55;94727.00;;;10.36;100.00
5500;BME280;2772;42.700;23.304;2022-12-15T12:40:28;94723.56;;;10.27;100.00
5500;BME280;2772;42.700;23.304;2022-12-15T12:42:57;94722.75;;;10.18;100.00
5500;BME280;2772;42.700;23.304;2022-12-15T12:45:28;94716.34;;;10.11;100.00
5500;BME280;2772;42.700;23.304;2022-12-15T12:48:00;94728.22;;;10.13;100.00
5500;BME280;2772;42.700;23.304;2022-12-15T12:50:29;94722.09;;;10.04;100.00
5500;BME280;2772;42.700;23.304;2022-12-15T12:53:01;94717.56;;;10.05;100.00
5500;BME280;2772;42.700;23.304;2022-12-15T12:55:37;94726.50;;;10.09;100.00
5500;BME280;2772;42.700;23.304;2022-12-15T12:58:29;94722.22;;;9.99;100.00
5500;BME280;2772;42.700;23.304;2022-12-15T13:01:17;94735.09;;;9.97;100.00
5500;BME280;2772;42.700;23.304;2022-12-15T13:03:45;94736.78;;;9.93;100.00
5500;BME280;2772;42.700;23.304;2022-12-15T13:09:38;94732.53;;;9.75;100.00
5500;BME280;2772;42.700;23.304;2022-12-15T13:12:34;94729.22;;;9.61;100.00
5500;BME280;2772;42.700;23.304;2022-12-15T13:15:05;94732.00;;;9.47;100.00
5500;BME280;2772;42.700;23.304;2022-12-15T13:17:39;94729.03;;;9.57;100.00
5500;BME280;2772;42.700;23.304;2022-12-15T13:20:21;94739.38;;;9.59;100.00
5500;BME280;2772;42.700;23.304;2022-12-15T13:22:48;94740.78;;;9.56;100.00
5500;BME280;2772;42.700;23.304;2022-12-15T13:25:36;94743.63;;;9.60;100.00
5500;BME280;2772;42.700;23.304;2022-12-15T13:28:23;94751.59;;;9.60;100.00
5500;BME280;2772;42.700;23.304;2022-12-15T13:31:10;94744.25;;;9.65;100.00
5500;BME280;2772;42.700;23.304;2022-12-15T13:33:43;94747.38;;;9.68;100.00
5500;BME280;2772;42.700;23.304;2022-12-15T13:36:11;94742.22;;;9.71;100.00
5500;BME280;2772;42.700;23.304;2022-12-15T13:38:58;94747.38;;;9.68;100.00
5500;BME280;2772;42.700;23.304;2022-12-15T13:41:25;94750.19;;;9.62;100.00
5500;BME280;2772;42.700;23.304;2022-12-15T13:43:54;94756.56;;;9.53;100.00
5500;BME280;2772;42.700;23.304;2022-12-15T13:46:23;94759.25;;;9.61;100.00
5500;BME280;2772;42.700;23.304;2022-12-15T13:48:54;94769.41;;;9.68;100.00
5500;BME280;2772;42.700;23.304;2022-12-15T13:51:31;94758.31;;;9.66;100.00
5500;BME280;2772;42.700;23.304;2022-12-15T13:54:02;94760.03;;;9.62;100.00
5500;BME280;2772;42.700;23.304;2022-12-15T13:56:50;94768.31;;;9.60;100.00
5500;BME280;2772;42.700;23.304;2022-12-15T13:59:25;94771.63;;;9.66;100.00
5500;BME280;2772;42.700;23.304;2022-12-15T14:01:52;94771.63;;;9.66;100.00